Time;durP1;ratioP1;P1;durP2;ratioP2;P2;SDS_P1;SDS_P2;PMS_P1;PMS_P2;Temp;Humidity;BMP_temperature;BMP_pressure;BME280_temperature;BME280_humidity;BME280_pressure;Samples;Min_cycle;Max_cycle;Signal;HPM_P1;HPM_P2
2023/01/20 00:00:50;;;;;;;0.77;0.47;;;;;;;15.97;71.97;100564.06;20160982;29;20053;-86
2023/01/20 00:10:51;;;;;;;1.20;0.30;;;;;;;15.98;71.95;100571.13;20157891;29;20101;-84
2023/01/20 00:20:53;;;;;;;0.38;0.30;;;;;;;15.97;71.86;100577.47;20160755;29;20472;-87
2023/01/20 00:30:54;;;;;;;0.20;0.20;;;;;;;15.97;71.89;100580.16;20160584;29;20088;-86
2023/01/20 00:40:59;;;;;;;0.47;0.20;;;;;;;15.73;71.69;100556.22;20142241;29;20057;-87
2023/01/20 00:51:01;;;;;;;0.20;0.20;;;;;;;15.98;71.89;100602.47;20157534;29;20076;-86
2023/01/20 01:01:03;;;;;;;0.20;0.20;;;;;;;15.97;71.59;100609.69;20157393;29;20393;-86
2023/01/20 01:11:06;;;;;;;0.10;0.10;;;;;;;15.84;71.77;100599.09;20155044;29;20057;-86
2023/01/20 01:21:09;;;;;;;0.20;0.20;;;;;;;15.96;71.80;100624.09;20163538;29;20140;-86
2023/01/20 01:31:11;;;;;;;0.30;0.20;;;;;;;15.98;71.72;100645.44;20171666;29;20053;-86
2023/01/20 01:41:14;;;;;;;0.60;0.20;;;;;;;15.97;71.68;100663.41;20170020;29;20056;-86
2023/01/20 01:51:22;;;;;;;0.20;0.20;;;;;;;15.96;71.48;100667.06;20170306;29;20059;-86
2023/01/20 02:01:27;;;;;;;0.35;0.20;;;;;;;15.73;71.58;100631.38;20150856;29;20052;-87
2023/01/20 02:11:31;;;;;;;0.17;0.17;;;;;;;15.97;71.35;100684.00;20167760;29;20381;-86
2023/01/20 02:21:57;;;;;;;0.38;0.38;;;;;;;15.96;71.51;100683.16;20166677;29;20092;-86
2023/01/20 02:32:05;;;;;;;0.10;0.10;;;;;;;15.95;71.49;100698.41;20164710;29;20789;-85
2023/01/20 02:42:15;;;;;;;0.15;0.13;;;;;;;15.76;71.55;100674.91;20167440;29;20071;-86
2023/01/20 02:52:21;;;;;;;0.73;0.20;;;;;;;15.97;71.36;100713.53;20164243;29;20512;-87
2023/01/20 03:02:25;;;;;;;0.20;0.20;;;;;;;15.96;71.18;100715.38;20163931;29;20056;-87
2023/01/20 03:12:30;;;;;;;0.20;0.20;;;;;;;15.67;71.06;100662.25;20147909;29;20112;-86
2023/01/20 03:22:32;;;;;;;0.20;0.20;;;;;;;15.94;71.22;100712.81;20162672;29;20461;-86
2023/01/20 03:32:33;;;;;;;0.10;0.10;;;;;;;15.60;71.05;100661.06;20162802;29;20057;-86
2023/01/20 03:42:57;;;;;;;0.20;0.20;;;;;;;15.94;71.35;100728.94;20162553;29;20396;-86
2023/01/20 04:40:56;;;;;;;0.15;0.15;;;;;;;15.93;71.15;100764.81;20157428;29;20151;-86
2023/01/20 04:50:57;;;;;;;0.20;0.20;;;;;;;15.93;71.09;100755.91;20159898;29;20136;-87
2023/01/20 05:01:00;;;;;;;0.10;0.10;;;;;;;15.59;71.05;100734.50;20168752;29;20077;-86
2023/01/20 05:11:02;;;;;;;0.30;0.30;;;;;;;15.92;71.13;100789.94;20170959;29;20576;-86
2023/01/20 05:21:06;;;;;;;0.20;0.20;;;;;;;15.94;71.03;100797.91;20172364;29;20057;-86
2023/01/20 05:31:08;;;;;;;0.20;0.20;;;;;;;15.93;70.82;100807.75;20170700;29;20049;-86
2023/01/20 05:41:09;;;;;;;0.15;0.10;;;;;;;15.93;71.00;100812.28;20169545;29;20049;-86
2023/01/20 05:51:11;;;;;;;0.10;0.10;;;;;;;15.71;70.90;100783.63;20169902;29;20414;-86
2023/01/20 06:01:13;;;;;;;0.20;0.20;;;;;;;15.93;70.78;100833.78;20169726;29;20113;-86
2023/01/20 06:11:16;;;;;;;0.20;0.20;;;;;;;15.70;70.70;100796.19;20165793;29;20052;-86
2023/01/20 06:21:18;;;;;;;0.20;0.20;;;;;;;15.93;70.81;100839.97;20168174;29;20452;-86
2023/01/20 06:31:19;;;;;;;0.10;0.10;;;;;;;15.46;70.49;100759.63;20167580;29;20136;-86
2023/01/20 06:41:21;;;;;;;0.28;0.28;;;;;;;15.92;70.65;100843.66;20166301;29;20144;-86
2023/01/20 06:51:22;;;;;;;0.20;0.20;;;;;;;15.92;70.33;100843.66;20158383;29;20057;-95
2023/01/20 07:01:27;;;;;;;0.55;0.30;;;;;;;15.73;70.37;100838.03;20140781;29;20060;-91
2023/01/20 07:11:30;;;;;;;0.87;0.60;;;;;;;15.97;70.44;100866.59;20134294;29;20059;-95
2023/01/20 07:21:31;;;;;;;0.40;0.40;;;;;;;15.97;70.51;100888.94;20140817;29;20143;-87
2023/01/20 07:31:33;;;;;;;0.55;0.38;;;;;;;15.97;70.34;100906.84;20157374;29;20060;-96
2023/01/20 07:41:35;;;;;;;1.08;0.45;;;;;;;15.96;70.68;100935.56;20188497;29;20053;-96
2023/01/20 07:51:36;;;;;;;0.88;0.60;;;;;;;15.95;71.23;100939.22;20168927;29;20080;-87
2023/01/20 08:01:38;;;;;;;2.78;0.60;;;;;;;15.90;71.46;100946.75;20135514;29;20101;-86
2023/01/20 08:11:39;;;;;;;1.20;0.98;;;;;;;15.95;71.35;100969.59;20158092;29;20560;-86
2023/01/20 08:21:41;;;;;;;1.55;0.55;;;;;;;15.94;71.51;100988.53;20158341;29;20112;-86
2023/01/20 08:31:42;;;;;;;1.60;0.70;;;;;;;15.93;71.42;101006.44;20158725;29;20539;-85
2023/01/20 08:41:46;;;;;;;0.80;0.50;;;;;;;15.93;71.25;101002.94;20160187;29;20064;-85
2023/01/20 08:51:47;;;;;;;1.25;0.57;;;;;;;15.92;71.54;101022.69;20159305;29;20049;-86
2023/01/20 09:01:49;;;;;;;0.90;0.40;;;;;;;15.68;71.39;100991.38;20158732;29;20072;-86
2023/01/20 09:11:50;;;;;;;0.77;0.50;;;;;;;15.85;71.53;101029.47;20159334;29;20580;-86
2023/01/20 09:21:52;;;;;;;0.80;0.63;;;;;;;15.78;71.27;101035.31;20158260;29;20053;-86
2023/01/20 09:31:58;;;;;;;1.95;0.50;;;;;;;15.92;71.35;101069.19;20157486;29;20057;-86
2023/01/20 10:03:39;;;;;;;1.08;0.60;;;;;;;15.85;71.28;101089.41;20168001;29;20512;-86
2023/01/20 10:13:55;;;;;;;1.15;0.70;;;;;;;15.71;71.18;101077.03;20105885;29;20059;-86
2023/01/20 10:24:01;;;;;;;1.00;0.70;;;;;;;15.92;71.24;101141.69;20168766;29;20090;-86
2023/01/20 10:34:11;;;;;;;0.77;0.60;;;;;;;15.93;71.07;101143.38;20166077;29;20500;-86
2023/01/20 10:44:14;;;;;;;0.88;0.55;;;;;;;15.78;71.05;101121.22;20165113;29;20052;-86
2023/01/20 10:54:21;;;;;;;0.70;0.70;;;;;;;15.93;71.02;101151.44;20162813;29;20053;-86
2023/01/20 11:04:22;;;;;;;1.13;0.60;;;;;;;15.94;70.86;101157.69;20161422;29;20104;-86
2023/01/20 11:14:24;;;;;;;1.08;0.68;;;;;;;15.93;70.96;101162.19;20147591;29;20041;-86
2023/01/20 11:24:43;;;;;;;0.60;0.60;;;;;;;15.94;70.74;101181.84;20163650;29;20706;-86
2023/01/20 11:34:48;;;;;;;1.60;0.60;;;;;;;15.90;70.77;101172.28;20146405;29;20084;-86
2023/01/20 11:44:57;;;;;;;;;;;;;;;15.95;70.73;101186.25;20162776;29;20109;-86
2023/01/20 11:55:15;;;;;;;0.77;0.77;;;;;;;15.94;70.85;101188.06;20161121;29;20213;-85
2023/01/20 12:05:24;;;;;;;0.55;0.55;;;;;;;15.81;70.90;101174.66;20161070;29;20068;-82
2023/01/20 12:15:28;;;;;;;0.93;0.70;;;;;;;15.89;70.92;101189.38;20158387;29;20113;-86
2023/01/20 12:25:35;;;;;;;0.83;0.70;;;;;;;15.95;70.90;101211.25;20158465;29;20072;-86
2023/01/20 12:35:41;;;;;;;0.65;0.63;;;;;;;15.95;70.84;101218.47;20158990;29;20053;-86
2023/01/20 12:46:10;;;;;;;0.80;0.70;;;;;;;15.56;70.62;101172.97;20157203;29;20052;-86
2023/01/20 12:56:48;;;;;;;1.20;0.63;;;;;;;15.96;70.60;101252.41;20156873;29;20055;-86
2023/01/20 13:07:08;;;;;;;0.75;0.75;;;;;;;15.95;70.73;101251.53;20144396;29;20523;-86
2023/01/20 13:17:26;;;;;;;0.70;0.70;;;;;;;15.84;70.66;101256.81;20128045;29;20068;-87
2023/01/20 13:27:32;;;;;;;1.13;0.80;;;;;;;15.95;70.37;101296.34;20138208;29;20060;-86
2023/01/20 13:37:37;;;;;;;1.00;0.90;;;;;;;15.82;70.63;101277.56;20139037;29;20056;-87
2023/01/20 13:47:49;;;;;;;1.15;0.82;;;;;;;15.97;70.38;101309.63;20162861;29;20420;-87
2023/01/20 13:57:50;;;;;;;0.90;0.85;;;;;;;15.87;70.51;101306.72;20133002;29;20065;-86
2023/01/20 14:07:52;;;;;;;1.25;0.88;;;;;;;15.96;70.57;101359.81;20131767;29;20061;-86
2023/01/20 14:17:55;;;;;;;1.15;0.90;;;;;;;15.84;70.58;101360.66;20126011;29;20056;-88
2023/01/20 14:27:56;;;;;;;0.85;0.80;;;;;;;15.90;70.50;101384.41;20115736;29;20049;-88
2023/01/20 14:37:58;;;;;;;0.70;0.70;;;;;;;15.96;70.39;101408.16;20115756;29;20053;-86
2023/01/20 14:48:01;;;;;;;0.70;0.70;;;;;;;15.97;70.26;101441.22;20132415;29;20108;-90
2023/01/20 14:58:07;;;;;;;0.93;0.90;;;;;;;15.97;70.42;101473.44;20121030;29;20069;-90
2023/01/20 15:08:21;;;;;;;0.90;0.73;;;;;;;15.73;70.50;101458.09;20132385;29;20211;-89
2023/01/20 15:18:26;;;;;;;0.80;0.80;;;;;;;15.97;70.26;101522.66;20124502;29;20151;-86
2023/01/20 15:28:28;;;;;;;1.33;1.00;;;;;;;15.83;70.36;101514.66;20123211;29;20449;-86
2023/01/20 15:38:30;;;;;;;0.80;0.80;;;;;;;15.89;70.27;101557.22;20128211;29;20121;-87
2023/01/20 15:48:32;;;;;;;1.92;1.08;;;;;;;16.00;70.21;101597.63;20115058;29;20048;-90
2023/01/20 15:58:36;;;;;;;1.33;1.00;;;;;;;16.03;70.37;101609.97;20078276;29;20492;-91
2023/01/20 16:08:37;;;;;;;1.73;1.20;;;;;;;16.06;70.29;101640.19;20070702;29;20309;-89
2023/01/20 16:18:40;;;;;;;1.42;1.30;;;;;;;15.90;70.25;101636.81;20079488;29;20057;-86
2023/01/20 16:28:41;;;;;;;1.10;1.00;;;;;;;16.03;70.17;101678.00;20105358;29;20136;-85
2023/01/20 16:38:43;;;;;;;1.30;1.20;;;;;;;16.03;70.37;101709.34;20134192;29;20144;-86
2023/01/20 16:48:45;;;;;;;1.73;1.38;;;;;;;16.03;70.04;101728.16;20107259;29;20065;-86
2023/01/20 16:58:48;;;;;;;1.98;1.27;;;;;;;16.03;70.20;101741.59;20082920;29;20067;-87
2023/01/20 17:08:51;;;;;;;1.38;1.20;;;;;;;16.02;70.41;101754.16;20081664;29;20696;-84
2023/01/20 17:18:57;;;;;;;1.77;1.50;;;;;;;16.02;70.33;101772.97;20090206;29;20587;-86
2023/01/20 17:29:03;;;;;;;2.13;1.33;;;;;;;15.82;70.53;101755.47;20095426;29;20052;-86
2023/01/20 17:39:05;;;;;;;1.48;1.35;;;;;;;16.03;70.47;101795.31;20108045;29;20416;-86
2023/01/20 17:49:07;;;;;;;1.52;1.25;;;;;;;16.04;70.56;101813.13;20112329;29;20503;-89
2023/01/20 17:59:09;;;;;;;1.85;1.42;;;;;;;15.96;70.62;101810.97;20140274;29;20576;-89
2023/01/20 18:09:12;;;;;;;1.88;1.50;;;;;;;16.04;70.42;101851.63;20157169;29;20453;-88
2023/01/20 18:19:14;;;;;;;1.88;1.42;;;;;;;15.91;70.76;101851.56;20161237;29;20504;-88
2023/01/20 18:29:16;;;;;;;1.73;1.52;;;;;;;16.04;70.62;101897.28;20155782;29;20551;-89
2023/01/20 18:39:20;;;;;;;1.70;1.40;;;;;;;16.03;70.44;101917.03;20154830;29;20523;-88
2023/01/20 18:49:21;;;;;;;1.48;1.20;;;;;;;16.03;70.54;101929.59;20153695;29;20061;-88
2023/01/20 18:59:23;;;;;;;1.75;1.65;;;;;;;16.02;70.46;101935.94;20153827;29;20060;-88
2023/01/20 19:09:25;;;;;;;3.20;1.33;;;;;;;16.02;70.41;101941.31;20138604;29;20049;-88
2023/01/20 19:19:26;;;;;;;3.13;1.40;;;;;;;16.03;70.69;101970.78;20148915;29;20056;-89
2023/01/20 19:29:29;;;;;;;1.85;1.55;;;;;;;15.92;70.59;101957.16;20157292;29;20504;-88
2023/01/20 19:39:30;;;;;;;2.10;1.65;;;;;;;16.02;70.60;101986.97;20150706;29;20071;-88
2023/01/20 19:49:32;;;;;;;1.75;1.40;;;;;;;15.76;70.35;101976.03;20152792;29;20049;-88
2023/01/20 19:59:33;;;;;;;1.98;1.35;;;;;;;16.02;70.57;102033.50;20149618;29;20470;-89
2023/01/20 20:09:35;;;;;;;1.55;1.17;;;;;;;15.87;70.35;102037.09;20150054;29;20056;-89
2023/01/20 20:19:37;;;;;;;1.30;1.20;;;;;;;15.94;70.51;102059.97;20147961;29;20052;-88
2023/01/20 20:29:38;;;;;;;1.83;1.40;;;;;;;15.75;70.30;102034.22;20147386;29;20113;-85
2023/01/20 20:39:40;;;;;;;2.40;1.30;;;;;;;16.01;70.55;102088.19;20148886;29;21778;-89
2023/01/20 20:49:41;;;;;;;2.33;1.48;;;;;;;16.02;70.56;102118.59;20128101;29;20063;-89
2023/01/20 20:59:43;;;;;;;1.60;1.50;;;;;;;16.02;70.40;102138.25;20149099;29;20053;-89
2023/01/20 21:09:59;;;;;;;2.15;1.48;;;;;;;16.02;70.68;102137.38;20145057;29;20136;-89
2023/01/20 21:20:01;;;;;;;2.10;1.70;;;;;;;16.01;70.54;102163.41;20148411;29;20053;-88
2023/01/20 21:30:02;;;;;;;1.95;1.40;;;;;;;16.02;70.63;102191.09;20143934;29;20389;-89
2023/01/20 21:40:05;;;;;;;1.55;1.40;;;;;;;15.86;70.35;102175.00;20155819;29;20132;-89
2023/01/20 22:00:29;;;;;;;1.70;1.25;;;;;;;16.01;70.26;102222.50;20158424;29;20469;-89
2023/01/20 22:10:31;;;;;;;1.80;1.20;;;;;;;16.01;70.31;102241.28;20143010;29;20058;-88
2023/01/20 22:20:33;;;;;;;1.38;1.10;;;;;;;16.01;70.45;102249.34;20158636;29;20052;-89
2023/01/20 22:30:35;;;;;;;1.17;1.05;;;;;;;15.78;70.51;102218.44;20155947;29;20084;-90
2023/01/20 22:40:36;;;;;;;1.95;1.30;;;;;;;16.00;70.44;102266.44;20153511;29;20061;-89
2023/01/20 22:51:21;;;;;;;1.42;1.30;;;;;;;16.00;70.32;102284.34;20153915;29;20057;-89
2023/01/20 23:01:26;;;;;;;1.67;1.10;;;;;;;15.99;70.27;102299.63;20149164;29;20503;-89
2023/01/20 23:11:28;;;;;;;1.47;1.37;;;;;;;16.00;70.27;102314.78;20153119;29;20045;-89
2023/01/20 23:21:30;;;;;;;1.40;1.20;;;;;;;15.78;70.28;102281.06;20156026;29;20132;-89
2023/01/20 23:31:33;;;;;;;1.27;1.17;;;;;;;15.74;70.16;102298.31;20155586;29;20144;-90
2023/01/20 23:41:35;;;;;;;1.38;1.20;;;;;;;15.99;70.30;102350.66;20162976;29;20064;-89
2023/01/20 23:51:36;;;;;;;1.30;1.20;;;;;;;15.99;70.17;102368.56;20162889;29;20088;-90
